sensor_id;sensor_type;location;lat;lon;timestamp;P1;durP1;ratioP1;P2;durP2;ratioP2
5904;SDS011;2978;42.012;24.880;2022-09-24T00:00:30;2.50;;;2.30;;
5904;SDS011;2978;42.012;24.880;2022-09-24T00:02:56;2.97;;;2.67;;
5904;SDS011;2978;42.012;24.880;2022-09-24T00:05:22;4.40;;;2.30;;
5904;SDS011;2978;42.012;24.880;2022-09-24T00:07:47;2.60;;;2.30;;
5904;SDS011;2978;42.012;24.880;2022-09-24T00:10:12;2.50;;;2.30;;
5904;SDS011;2978;42.012;24.880;2022-09-24T00:12:38;4.70;;;2.50;;
5904;SDS011;2978;42.012;24.880;2022-09-24T00:15:04;8.37;;;2.10;;
5904;SDS011;2978;42.012;24.880;2022-09-24T00:17:30;2.90;;;2.60;;
5904;SDS011;2978;42.012;24.880;2022-09-24T00:19:55;2.40;;;2.20;;
5904;SDS011;2978;42.012;24.880;2022-09-24T00:22:21;2.67;;;2.47;;
5904;SDS011;2978;42.012;24.880;2022-09-24T00:24:46;2.43;;;2.23;;
5904;SDS011;2978;42.012;24.880;2022-09-24T00:27:30;2.90;;;2.43;;
5904;SDS011;2978;42.012;24.880;2022-09-24T00:29:55;3.13;;;2.47;;
5904;SDS011;2978;42.012;24.880;2022-09-24T00:32:21;4.50;;;2.73;;
5904;SDS011;2978;42.012;24.880;2022-09-24T00:34:48;3.43;;;2.20;;
5904;SDS011;2978;42.012;24.880;2022-09-24T00:37:16;5.10;;;2.57;;
5904;SDS011;2978;42.012;24.880;2022-09-24T00:39:43;3.07;;;2.57;;
5904;SDS011;2978;42.012;24.880;2022-09-24T00:42:09;2.70;;;2.50;;
5904;SDS011;2978;42.012;24.880;2022-09-24T00:47:22;3.70;;;2.10;;
5904;SDS011;2978;42.012;24.880;2022-09-24T00:50:16;3.20;;;2.57;;
5904;SDS011;2978;42.012;24.880;2022-09-24T00:53:07;3.80;;;2.30;;
5904;SDS011;2978;42.012;24.880;2022-09-24T00:55:30;2.40;;;2.00;;
5904;SDS011;2978;42.012;24.880;2022-09-24T00:58:02;2.57;;;2.23;;
5904;SDS011;2978;42.012;24.880;2022-09-24T01:00:30;2.50;;;2.30;;
5904;SDS011;2978;42.012;24.880;2022-09-24T01:03:00;2.80;;;2.50;;
5904;SDS011;2978;42.012;24.880;2022-09-24T01:05:29;3.60;;;2.40;;
5904;SDS011;2978;42.012;24.880;2022-09-24T01:07:55;2.97;;;2.23;;
5904;SDS011;2978;42.012;24.880;2022-09-24T01:10:26;2.63;;;2.43;;
5904;SDS011;2978;42.012;24.880;2022-09-24T01:30:16;3.63;;;2.63;;
5904;SDS011;2978;42.012;24.880;2022-09-24T01:32:44;3.43;;;2.13;;
5904;SDS011;2978;42.012;24.880;2022-09-24T01:35:18;2.10;;;1.90;;
5904;SDS011;2978;42.012;24.880;2022-09-24T01:37:49;2.43;;;2.23;;
5904;SDS011;2978;42.012;24.880;2022-09-24T01:40:21;2.60;;;2.40;;
5904;SDS011;2978;42.012;24.880;2022-09-24T01:42:49;2.47;;;2.27;;
5904;SDS011;2978;42.012;24.880;2022-09-24T01:45:17;7.70;;;2.60;;
5904;SDS011;2978;42.012;24.880;2022-09-24T01:47:44;4.13;;;2.20;;
5904;SDS011;2978;42.012;24.880;2022-09-24T01:50:11;4.67;;;2.27;;
5904;SDS011;2978;42.012;24.880;2022-09-24T01:52:43;15.10;;;2.90;;
5904;SDS011;2978;42.012;24.880;2022-09-24T01:55:20;2.43;;;2.23;;
5904;SDS011;2978;42.012;24.880;2022-09-24T01:57:54;4.23;;;2.17;;
5904;SDS011;2978;42.012;24.880;2022-09-24T02:00:23;3.70;;;2.50;;
5904;SDS011;2978;42.012;24.880;2022-09-24T02:05:54;3.70;;;2.43;;
5904;SDS011;2978;42.012;24.880;2022-09-24T02:08:25;6.87;;;2.83;;
5904;SDS011;2978;42.012;24.880;2022-09-24T02:11:03;3.47;;;2.70;;
5904;SDS011;2978;42.012;24.880;2022-09-24T02:13:55;15.10;;;2.20;;
5904;SDS011;2978;42.012;24.880;2022-09-24T02:16:23;2.27;;;2.07;;
5904;SDS011;2978;42.012;24.880;2022-09-24T02:18:53;7.43;;;2.13;;
5904;SDS011;2978;42.012;24.880;2022-09-24T02:21:22;2.10;;;1.83;;
5904;SDS011;2978;42.012;24.880;2022-09-24T02:23:50;5.90;;;2.20;;
5904;SDS011;2978;42.012;24.880;2022-09-24T02:26:21;3.17;;;2.20;;
5904;SDS011;2978;42.012;24.880;2022-09-24T02:28:47;2.30;;;1.90;;
5904;SDS011;2978;42.012;24.880;2022-09-24T02:31:13;2.33;;;2.13;;
5904;SDS011;2978;42.012;24.880;2022-09-24T02:33:42;3.83;;;2.50;;
5904;SDS011;2978;42.012;24.880;2022-09-24T02:36:30;2.73;;;2.53;;
5904;SDS011;2978;42.012;24.880;2022-09-24T02:38:56;2.33;;;1.93;;
5904;SDS011;2978;42.012;24.880;2022-09-24T02:41:21;2.50;;;2.30;;
5904;SDS011;2978;42.012;24.880;2022-09-24T02:43:49;2.33;;;2.13;;
5904;SDS011;2978;42.012;24.880;2022-09-24T02:46:15;2.50;;;2.00;;
5904;SDS011;2978;42.012;24.880;2022-09-24T02:48:41;4.43;;;2.00;;
5904;SDS011;2978;42.012;24.880;2022-09-24T02:51:06;2.53;;;2.10;;
5904;SDS011;2978;42.012;24.880;2022-09-24T02:53:32;2.40;;;2.13;;
5904;SDS011;2978;42.012;24.880;2022-09-24T02:55:58;2.10;;;1.80;;
5904;SDS011;2978;42.012;24.880;2022-09-24T02:58:27;3.90;;;2.30;;
5904;SDS011;2978;42.012;24.880;2022-09-24T03:00:53;2.73;;;2.43;;
5904;SDS011;2978;42.012;24.880;2022-09-24T03:03:20;7.57;;;2.10;;
5904;SDS011;2978;42.012;24.880;2022-09-24T03:05:47;6.07;;;2.37;;
5904;SDS011;2978;42.012;24.880;2022-09-24T03:08:13;2.63;;;1.87;;
5904;SDS011;2978;42.012;24.880;2022-09-24T03:10:41;3.60;;;2.30;;
5904;SDS011;2978;42.012;24.880;2022-09-24T03:13:06;2.30;;;2.00;;
5904;SDS011;2978;42.012;24.880;2022-09-24T03:15:32;2.43;;;2.23;;
5904;SDS011;2978;42.012;24.880;2022-09-24T03:17:57;2.93;;;2.63;;
5904;SDS011;2978;42.012;24.880;2022-09-24T03:20:22;3.97;;;2.37;;
5904;SDS011;2978;42.012;24.880;2022-09-24T03:22:51;10.10;;;2.30;;
5904;SDS011;2978;42.012;24.880;2022-09-24T03:25:17;4.50;;;2.40;;
5904;SDS011;2978;42.012;24.880;2022-09-24T03:27:43;4.33;;;1.90;;
5904;SDS011;2978;42.012;24.880;2022-09-24T03:30:09;2.90;;;2.50;;
5904;SDS011;2978;42.012;24.880;2022-09-24T03:32:53;7.27;;;2.50;;
5904;SDS011;2978;42.012;24.880;2022-09-24T03:35:18;4.13;;;2.13;;
5904;SDS011;2978;42.012;24.880;2022-09-24T03:37:44;7.40;;;2.20;;
5904;SDS011;2978;42.012;24.880;2022-09-24T03:40:10;2.33;;;2.10;;
5904;SDS011;2978;42.012;24.880;2022-09-24T03:42:36;2.30;;;2.10;;
5904;SDS011;2978;42.012;24.880;2022-09-24T03:45:01;4.30;;;1.90;;
5904;SDS011;2978;42.012;24.880;2022-09-24T03:47:27;2.47;;;2.03;;
5904;SDS011;2978;42.012;24.880;2022-09-24T03:49:55;3.67;;;2.97;;
5904;SDS011;2978;42.012;24.880;2022-09-24T03:52:21;2.77;;;2.47;;
5904;SDS011;2978;42.012;24.880;2022-09-24T03:54:46;2.50;;;2.30;;
5904;SDS011;2978;42.012;24.880;2022-09-24T03:57:11;2.57;;;2.37;;
5904;SDS011;2978;42.012;24.880;2022-09-24T03:59:39;3.63;;;2.30;;
5904;SDS011;2978;42.012;24.880;2022-09-24T04:02:06;6.17;;;2.33;;
5904;SDS011;2978;42.012;24.880;2022-09-24T04:04:32;16.50;;;3.43;;
5904;SDS011;2978;42.012;24.880;2022-09-24T04:06:57;2.37;;;2.17;;
5904;SDS011;2978;42.012;24.880;2022-09-24T04:09:23;2.10;;;1.90;;
5904;SDS011;2978;42.012;24.880;2022-09-24T04:11:48;6.63;;;2.50;;
5904;SDS011;2978;42.012;24.880;2022-09-24T04:14:16;2.70;;;2.17;;
5904;SDS011;2978;42.012;24.880;2022-09-24T04:16:42;2.23;;;2.00;;
5904;SDS011;2978;42.012;24.880;2022-09-24T04:19:09;2.27;;;1.83;;
5904;SDS011;2978;42.012;24.880;2022-09-24T04:21:35;2.80;;;2.10;;
5904;SDS011;2978;42.012;24.880;2022-09-24T04:24:01;2.20;;;2.00;;
5904;SDS011;2978;42.012;24.880;2022-09-24T04:26:27;4.73;;;2.40;;
5904;SDS011;2978;42.012;24.880;2022-09-24T04:28:53;2.67;;;2.30;;
5904;SDS011;2978;42.012;24.880;2022-09-24T04:31:18;5.57;;;1.97;;
5904;SDS011;2978;42.012;24.880;2022-09-24T04:33:44;4.90;;;2.20;;
5904;SDS011;2978;42.012;24.880;2022-09-24T04:36:09;2.27;;;1.83;;
5904;SDS011;2978;42.012;24.880;2022-09-24T04:38:35;3.17;;;2.00;;
5904;SDS011;2978;42.012;24.880;2022-09-24T04:41:04;14.67;;;2.40;;
5904;SDS011;2978;42.012;24.880;2022-09-24T04:43:31;2.47;;;2.27;;
5904;SDS011;2978;42.012;24.880;2022-09-24T04:45:57;4.10;;;2.40;;
5904;SDS011;2978;42.012;24.880;2022-09-24T04:48:23;20.80;;;3.10;;
5904;SDS011;2978;42.012;24.880;2022-09-24T04:50:49;2.10;;;1.90;;
5904;SDS011;2978;42.012;24.880;2022-09-24T04:53:14;2.10;;;1.90;;
5904;SDS011;2978;42.012;24.880;2022-09-24T04:55:40;8.80;;;2.27;;
5904;SDS011;2978;42.012;24.880;2022-09-24T04:58:05;2.57;;;1.90;;
5904;SDS011;2978;42.012;24.880;2022-09-24T05:00:31;9.13;;;2.90;;
5904;SDS011;2978;42.012;24.880;2022-09-24T05:02:57;2.70;;;2.00;;
5904;SDS011;2978;42.012;24.880;2022-09-24T05:05:24;13.07;;;2.30;;
5904;SDS011;2978;42.012;24.880;2022-09-24T05:07:50;8.27;;;2.80;;
5904;SDS011;2978;42.012;24.880;2022-09-24T05:10:16;4.10;;;2.17;;
5904;SDS011;2978;42.012;24.880;2022-09-24T05:12:42;2.37;;;1.87;;
5904;SDS011;2978;42.012;24.880;2022-09-24T05:15:07;4.30;;;2.27;;
5904;SDS011;2978;42.012;24.880;2022-09-24T05:17:37;10.43;;;2.10;;
5904;SDS011;2978;42.012;24.880;2022-09-24T05:20:03;2.67;;;1.70;;
5904;SDS011;2978;42.012;24.880;2022-09-24T05:22:29;1.97;;;1.87;;
5904;SDS011;2978;42.012;24.880;2022-09-24T05:24:55;5.30;;;1.83;;
5904;SDS011;2978;42.012;24.880;2022-09-24T05:27:21;4.40;;;2.40;;
5904;SDS011;2978;42.012;24.880;2022-09-24T05:29:47;3.50;;;2.10;;
5904;SDS011;2978;42.012;24.880;2022-09-24T05:32:13;4.40;;;2.20;;
5904;SDS011;2978;42.012;24.880;2022-09-24T05:34:41;50.27;;;4.30;;
5904;SDS011;2978;42.012;24.880;2022-09-24T05:37:08;4.13;;;2.17;;
5904;SDS011;2978;42.012;24.880;2022-09-24T05:39:33;6.33;;;2.37;;
5904;SDS011;2978;42.012;24.880;2022-09-24T05:41:59;3.77;;;2.10;;
5904;SDS011;2978;42.012;24.880;2022-09-24T05:44:28;5.00;;;2.00;;
5904;SDS011;2978;42.012;24.880;2022-09-24T05:46:53;8.00;;;2.37;;
5904;SDS011;2978;42.012;24.880;2022-09-24T05:49:19;2.73;;;1.93;;
5904;SDS011;2978;42.012;24.880;2022-09-24T05:51:46;6.83;;;2.10;;
5904;SDS011;2978;42.012;24.880;2022-09-24T05:54:13;2.53;;;2.13;;
5904;SDS011;2978;42.012;24.880;2022-09-24T05:56:38;3.93;;;2.60;;
5904;SDS011;2978;42.012;24.880;2022-09-24T05:59:04;3.07;;;2.17;;
5904;SDS011;2978;42.012;24.880;2022-09-24T06:01:29;4.40;;;2.60;;
5904;SDS011;2978;42.012;24.880;2022-09-24T06:03:55;8.00;;;3.17;;
5904;SDS011;2978;42.012;24.880;2022-09-24T06:06:21;3.90;;;3.13;;
5904;SDS011;2978;42.012;24.880;2022-09-24T06:08:47;2.93;;;2.30;;
5904;SDS011;2978;42.012;24.880;2022-09-24T06:11:13;4.83;;;2.53;;
5904;SDS011;2978;42.012;24.880;2022-09-24T06:13:38;14.00;;;2.23;;
5904;SDS011;2978;42.012;24.880;2022-09-24T06:16:05;3.90;;;3.13;;
5904;SDS011;2978;42.012;24.880;2022-09-24T06:18:36;4.57;;;2.33;;
5904;SDS011;2978;42.012;24.880;2022-09-24T06:21:04;3.07;;;2.60;;
5904;SDS011;2978;42.012;24.880;2022-09-24T06:23:32;2.40;;;2.20;;
5904;SDS011;2978;42.012;24.880;2022-09-24T06:25:58;3.27;;;2.33;;
5904;SDS011;2978;42.012;24.880;2022-09-24T06:28:23;2.63;;;2.37;;
5904;SDS011;2978;42.012;24.880;2022-09-24T06:30:52;3.07;;;2.70;;
5904;SDS011;2978;42.012;24.880;2022-09-24T06:33:18;2.97;;;2.50;;
5904;SDS011;2978;42.012;24.880;2022-09-24T06:35:44;5.20;;;2.47;;
5904;SDS011;2978;42.012;24.880;2022-09-24T06:38:11;3.10;;;2.60;;
5904;SDS011;2978;42.012;24.880;2022-09-24T06:40:38;3.70;;;2.40;;
5904;SDS011;2978;42.012;24.880;2022-09-24T06:43:07;3.63;;;2.70;;
5904;SDS011;2978;42.012;24.880;2022-09-24T06:45:34;4.50;;;3.43;;
5904;SDS011;2978;42.012;24.880;2022-09-24T06:48:00;4.73;;;2.73;;
5904;SDS011;2978;42.012;24.880;2022-09-24T06:50:28;4.30;;;2.20;;
5904;SDS011;2978;42.012;24.880;2022-09-24T06:52:55;2.83;;;2.53;;
5904;SDS011;2978;42.012;24.880;2022-09-24T06:55:21;2.60;;;2.40;;
5904;SDS011;2978;42.012;24.880;2022-09-24T06:57:46;3.07;;;2.10;;
5904;SDS011;2978;42.012;24.880;2022-09-24T07:00:12;2.93;;;2.20;;
5904;SDS011;2978;42.012;24.880;2022-09-24T07:02:38;4.23;;;2.80;;
5904;SDS011;2978;42.012;24.880;2022-09-24T07:05:04;2.77;;;2.50;;
5904;SDS011;2978;42.012;24.880;2022-09-24T07:07:31;3.07;;;2.63;;
5904;SDS011;2978;42.012;24.880;2022-09-24T07:10:02;7.73;;;3.70;;
5904;SDS011;2978;42.012;24.880;2022-09-24T07:12:32;2.60;;;2.20;;
5904;SDS011;2978;42.012;24.880;2022-09-24T07:14:58;3.67;;;2.67;;
5904;SDS011;2978;42.012;24.880;2022-09-24T07:17:25;4.73;;;3.10;;
5904;SDS011;2978;42.012;24.880;2022-09-24T07:19:52;3.00;;;2.50;;
5904;SDS011;2978;42.012;24.880;2022-09-24T07:22:18;4.40;;;2.70;;
5904;SDS011;2978;42.012;24.880;2022-09-24T07:24:44;3.93;;;2.60;;
5904;SDS011;2978;42.012;24.880;2022-09-24T07:27:09;3.67;;;2.73;;
5904;SDS011;2978;42.012;24.880;2022-09-24T07:29:36;6.67;;;3.00;;
5904;SDS011;2978;42.012;24.880;2022-09-24T07:32:02;6.33;;;3.30;;
5904;SDS011;2978;42.012;24.880;2022-09-24T07:34:28;4.67;;;2.90;;
5904;SDS011;2978;42.012;24.880;2022-09-24T07:36:54;5.87;;;2.90;;
5904;SDS011;2978;42.012;24.880;2022-09-24T07:39:20;3.90;;;2.77;;
5904;SDS011;2978;42.012;24.880;2022-09-24T07:41:46;7.57;;;4.07;;
5904;SDS011;2978;42.012;24.880;2022-09-24T07:44:11;4.63;;;2.57;;
5904;SDS011;2978;42.012;24.880;2022-09-24T07:46:37;6.50;;;2.90;;
5904;SDS011;2978;42.012;24.880;2022-09-24T07:49:03;3.80;;;2.63;;
5904;SDS011;2978;42.012;24.880;2022-09-24T07:51:28;13.67;;;5.30;;
5904;SDS011;2978;42.012;24.880;2022-09-24T07:53:55;9.80;;;4.10;;
5904;SDS011;2978;42.012;24.880;2022-09-24T07:56:21;10.60;;;3.57;;
5904;SDS011;2978;42.012;24.880;2022-09-24T07:58:48;5.40;;;3.20;;
5904;SDS011;2978;42.012;24.880;2022-09-24T08:01:14;5.87;;;3.37;;
5904;SDS011;2978;42.012;24.880;2022-09-24T08:03:41;9.53;;;3.20;;
5904;SDS011;2978;42.012;24.880;2022-09-24T08:06:10;4.70;;;2.93;;
5904;SDS011;2978;42.012;24.880;2022-09-24T08:08:37;6.20;;;3.20;;
5904;SDS011;2978;42.012;24.880;2022-09-24T08:11:03;10.33;;;4.10;;
5904;SDS011;2978;42.012;24.880;2022-09-24T08:13:30;7.70;;;3.10;;
5904;SDS011;2978;42.012;24.880;2022-09-24T08:15:58;7.10;;;3.40;;
5904;SDS011;2978;42.012;24.880;2022-09-24T08:18:24;4.10;;;2.57;;
5904;SDS011;2978;42.012;24.880;2022-09-24T08:20:50;7.00;;;3.40;;
5904;SDS011;2978;42.012;24.880;2022-09-24T08:23:15;7.80;;;3.17;;
5904;SDS011;2978;42.012;24.880;2022-09-24T08:25:40;7.43;;;3.23;;
5904;SDS011;2978;42.012;24.880;2022-09-24T08:28:06;4.83;;;3.47;;
5904;SDS011;2978;42.012;24.880;2022-09-24T08:30:33;4.03;;;2.00;;
5904;SDS011;2978;42.012;24.880;2022-09-24T08:32:59;3.67;;;2.57;;
5904;SDS011;2978;42.012;24.880;2022-09-24T08:35:25;7.33;;;2.70;;
5904;SDS011;2978;42.012;24.880;2022-09-24T08:37:54;2.83;;;2.27;;
5904;SDS011;2978;42.012;24.880;2022-09-24T08:40:21;3.93;;;2.80;;
5904;SDS011;2978;42.012;24.880;2022-09-24T08:42:54;4.40;;;2.63;;
5904;SDS011;2978;42.012;24.880;2022-09-24T08:45:26;5.00;;;3.30;;
5904;SDS011;2978;42.012;24.880;2022-09-24T08:48:12;6.53;;;3.33;;
5904;SDS011;2978;42.012;24.880;2022-09-24T08:50:51;4.20;;;3.07;;
5904;SDS011;2978;42.012;24.880;2022-09-24T08:53:26;4.63;;;3.20;;
5904;SDS011;2978;42.012;24.880;2022-09-24T08:56:02;5.43;;;2.93;;
5904;SDS011;2978;42.012;24.880;2022-09-24T09:01:30;4.40;;;3.20;;
5904;SDS011;2978;42.012;24.880;2022-09-24T09:06:46;4.60;;;2.30;;
5904;SDS011;2978;42.012;24.880;2022-09-24T09:12:33;5.67;;;2.60;;
5904;SDS011;2978;42.012;24.880;2022-09-24T09:17:47;3.90;;;2.60;;
5904;SDS011;2978;42.012;24.880;2022-09-24T09:20:22;9.60;;;2.70;;
5904;SDS011;2978;42.012;24.880;2022-09-24T09:22:54;12.37;;;3.40;;
5904;SDS011;2978;42.012;24.880;2022-09-24T09:25:26;3.77;;;2.80;;
5904;SDS011;2978;42.012;24.880;2022-09-24T09:30:25;5.17;;;2.87;;
5904;SDS011;2978;42.012;24.880;2022-09-24T09:35:45;3.70;;;2.80;;
5904;SDS011;2978;42.012;24.880;2022-09-24T09:43:47;5.33;;;2.80;;
5904;SDS011;2978;42.012;24.880;2022-09-24T09:46:23;3.00;;;2.27;;
5904;SDS011;2978;42.012;24.880;2022-09-24T09:48:57;2.53;;;2.13;;
5904;SDS011;2978;42.012;24.880;2022-09-24T09:51:27;2.80;;;2.20;;
5904;SDS011;2978;42.012;24.880;2022-09-24T09:53:59;4.37;;;2.30;;
5904;SDS011;2978;42.012;24.880;2022-09-24T09:56:30;8.00;;;2.40;;
5904;SDS011;2978;42.012;24.880;2022-09-24T09:59:02;4.03;;;2.80;;
5904;SDS011;2978;42.012;24.880;2022-09-24T10:01:31;2.37;;;2.17;;
5904;SDS011;2978;42.012;24.880;2022-09-24T10:03:58;6.80;;;2.43;;
5904;SDS011;2978;42.012;24.880;2022-09-24T10:06:35;2.10;;;1.50;;
5904;SDS011;2978;42.012;24.880;2022-09-24T10:09:14;2.90;;;1.87;;
5904;SDS011;2978;42.012;24.880;2022-09-24T10:11:43;3.77;;;2.20;;
5904;SDS011;2978;42.012;24.880;2022-09-24T10:14:10;4.53;;;2.00;;
5904;SDS011;2978;42.012;24.880;2022-09-24T10:16:37;3.93;;;2.27;;
5904;SDS011;2978;42.012;24.880;2022-09-24T10:19:11;4.53;;;2.03;;
5904;SDS011;2978;42.012;24.880;2022-09-24T10:21:41;2.63;;;2.13;;
5904;SDS011;2978;42.012;24.880;2022-09-24T10:24:10;5.47;;;2.67;;
5904;SDS011;2978;42.012;24.880;2022-09-24T10:26:40;4.40;;;2.50;;
5904;SDS011;2978;42.012;24.880;2022-09-24T10:32:16;4.90;;;2.13;;
5904;SDS011;2978;42.012;24.880;2022-09-24T10:34:59;4.80;;;2.50;;
5904;SDS011;2978;42.012;24.880;2022-09-24T10:37:25;4.03;;;2.43;;
5904;SDS011;2978;42.012;24.880;2022-09-24T10:42:25;9.10;;;2.23;;
5904;SDS011;2978;42.012;24.880;2022-09-24T10:44:53;2.40;;;2.17;;
5904;SDS011;2978;42.012;24.880;2022-09-24T10:57:50;2.23;;;2.00;;
5904;SDS011;2978;42.012;24.880;2022-09-24T11:03:23;5.83;;;2.10;;
5904;SDS011;2978;42.012;24.880;2022-09-24T11:08:47;3.95;;;2.10;;
5904;SDS011;2978;42.012;24.880;2022-09-24T11:20:01;3.97;;;2.20;;
5904;SDS011;2978;42.012;24.880;2022-09-24T11:25:20;3.67;;;2.40;;
5904;SDS011;2978;42.012;24.880;2022-09-24T11:30:37;2.40;;;1.90;;
5904;SDS011;2978;42.012;24.880;2022-09-24T11:52:32;5.13;;;1.87;;
5904;SDS011;2978;42.012;24.880;2022-09-24T12:00:47;4.50;;;2.30;;
5904;SDS011;2978;42.012;24.880;2022-09-24T12:03:31;3.93;;;2.90;;
5904;SDS011;2978;42.012;24.880;2022-09-24T12:06:08;6.60;;;2.43;;
5904;SDS011;2978;42.012;24.880;2022-09-24T12:08:52;4.50;;;2.43;;
5904;SDS011;2978;42.012;24.880;2022-09-24T12:11:48;3.40;;;2.20;;
5904;SDS011;2978;42.012;24.880;2022-09-24T12:17:06;4.00;;;2.50;;
5904;SDS011;2978;42.012;24.880;2022-09-24T12:19:46;3.73;;;2.43;;
5904;SDS011;2978;42.012;24.880;2022-09-24T12:22:16;3.03;;;2.23;;
5904;SDS011;2978;42.012;24.880;2022-09-24T12:24:47;2.27;;;2.00;;
5904;SDS011;2978;42.012;24.880;2022-09-24T12:27:16;7.33;;;2.20;;
5904;SDS011;2978;42.012;24.880;2022-09-24T12:29:49;2.00;;;1.60;;
5904;SDS011;2978;42.012;24.880;2022-09-24T12:32:45;2.87;;;2.10;;
5904;SDS011;2978;42.012;24.880;2022-09-24T12:43:21;4.57;;;1.97;;
5904;SDS011;2978;42.012;24.880;2022-09-24T12:45:59;7.53;;;2.60;;
5904;SDS011;2978;42.012;24.880;2022-09-24T12:48:27;4.07;;;1.97;;
5904;SDS011;2978;42.012;24.880;2022-09-24T12:50:58;3.40;;;2.40;;
5904;SDS011;2978;42.012;24.880;2022-09-24T12:53:36;5.00;;;2.40;;
5904;SDS011;2978;42.012;24.880;2022-09-24T12:56:05;4.40;;;2.30;;
5904;SDS011;2978;42.012;24.880;2022-09-24T12:58:38;5.27;;;2.50;;
5904;SDS011;2978;42.012;24.880;2022-09-24T13:04:27;3.63;;;2.27;;
5904;SDS011;2978;42.012;24.880;2022-09-24T13:06:46;4.70;;;2.73;;
5904;SDS011;2978;42.012;24.880;2022-09-24T13:14:39;5.77;;;2.10;;
5904;SDS011;2978;42.012;24.880;2022-09-24T13:17:07;2.57;;;1.90;;
5904;SDS011;2978;42.012;24.880;2022-09-24T13:19:40;2.90;;;2.10;;
5904;SDS011;2978;42.012;24.880;2022-09-24T13:24:53;2.63;;;2.07;;
5904;SDS011;2978;42.012;24.880;2022-09-24T13:35:43;4.23;;;2.17;;
5904;SDS011;2978;42.012;24.880;2022-09-24T13:38:19;3.10;;;2.40;;
5904;SDS011;2978;42.012;24.880;2022-09-24T13:44:03;7.20;;;3.07;;
5904;SDS011;2978;42.012;24.880;2022-09-24T13:46:35;3.53;;;2.50;;
5904;SDS011;2978;42.012;24.880;2022-09-24T13:49:09;3.60;;;2.30;;
5904;SDS011;2978;42.012;24.880;2022-09-24T13:51:40;5.10;;;2.20;;
5904;SDS011;2978;42.012;24.880;2022-09-24T13:59:48;5.33;;;2.30;;
5904;SDS011;2978;42.012;24.880;2022-09-24T14:02:25;6.63;;;3.60;;
5904;SDS011;2978;42.012;24.880;2022-09-24T14:04:53;4.10;;;2.70;;
5904;SDS011;2978;42.012;24.880;2022-09-24T14:07:21;11.03;;;3.13;;
5904;SDS011;2978;42.012;24.880;2022-09-24T14:09:47;7.30;;;2.30;;
5904;SDS011;2978;42.012;24.880;2022-09-24T14:12:15;4.03;;;2.60;;
5904;SDS011;2978;42.012;24.880;2022-09-24T14:14:50;3.53;;;2.00;;
5904;SDS011;2978;42.012;24.880;2022-09-24T14:17:18;10.33;;;2.23;;
5904;SDS011;2978;42.012;24.880;2022-09-24T14:19:44;2.33;;;2.07;;
5904;SDS011;2978;42.012;24.880;2022-09-24T14:22:23;2.67;;;2.33;;
5904;SDS011;2978;42.012;24.880;2022-09-24T14:27:35;5.13;;;2.50;;
5904;SDS011;2978;42.012;24.880;2022-09-24T14:30:06;4.23;;;2.57;;
5904;SDS011;2978;42.012;24.880;2022-09-24T14:32:40;3.30;;;2.40;;
5904;SDS011;2978;42.012;24.880;2022-09-24T14:35:14;3.70;;;3.10;;
5904;SDS011;2978;42.012;24.880;2022-09-24T14:40:39;4.53;;;2.00;;
5904;SDS011;2978;42.012;24.880;2022-09-24T14:43:13;4.23;;;1.90;;
5904;SDS011;2978;42.012;24.880;2022-09-24T14:45:46;4.50;;;2.53;;
5904;SDS011;2978;42.012;24.880;2022-09-24T14:48:27;5.50;;;2.23;;
5904;SDS011;2978;42.012;24.880;2022-09-24T14:50:55;3.23;;;2.37;;
5904;SDS011;2978;42.012;24.880;2022-09-24T14:53:30;7.60;;;3.40;;
5904;SDS011;2978;42.012;24.880;2022-09-24T14:56:17;4.97;;;3.00;;
5904;SDS011;2978;42.012;24.880;2022-09-24T14:58:44;6.40;;;2.30;;
5904;SDS011;2978;42.012;24.880;2022-09-24T15:03:47;10.10;;;2.60;;
5904;SDS011;2978;42.012;24.880;2022-09-24T15:06:19;2.67;;;2.30;;
5904;SDS011;2978;42.012;24.880;2022-09-24T15:08:51;4.63;;;2.50;;
5904;SDS011;2978;42.012;24.880;2022-09-24T15:11:19;3.83;;;2.40;;
5904;SDS011;2978;42.012;24.880;2022-09-24T15:14:30;5.90;;;2.60;;
5904;SDS011;2978;42.012;24.880;2022-09-24T15:16:49;6.63;;;2.83;;
5904;SDS011;2978;42.012;24.880;2022-09-24T15:19:22;4.97;;;3.13;;
5904;SDS011;2978;42.012;24.880;2022-09-24T15:21:51;3.67;;;2.83;;
5904;SDS011;2978;42.012;24.880;2022-09-24T15:24:19;5.60;;;3.60;;
5904;SDS011;2978;42.012;24.880;2022-09-24T15:26:47;12.83;;;4.13;;
5904;SDS011;2978;42.012;24.880;2022-09-24T15:29:23;8.60;;;4.27;;
5904;SDS011;2978;42.012;24.880;2022-09-24T15:31:49;7.53;;;4.00;;
5904;SDS011;2978;42.012;24.880;2022-09-24T15:34:15;5.33;;;3.90;;
5904;SDS011;2978;42.012;24.880;2022-09-24T15:36:40;7.50;;;4.33;;
5904;SDS011;2978;42.012;24.880;2022-09-24T15:39:06;6.73;;;4.57;;
5904;SDS011;2978;42.012;24.880;2022-09-24T15:41:33;8.37;;;4.27;;
5904;SDS011;2978;42.012;24.880;2022-09-24T15:43:58;6.57;;;3.60;;
5904;SDS011;2978;42.012;24.880;2022-09-24T15:46:24;11.43;;;3.60;;
5904;SDS011;2978;42.012;24.880;2022-09-24T15:48:50;15.23;;;4.30;;
5904;SDS011;2978;42.012;24.880;2022-09-24T15:51:17;5.60;;;3.20;;
5904;SDS011;2978;42.012;24.880;2022-09-24T15:53:45;6.43;;;3.50;;
5904;SDS011;2978;42.012;24.880;2022-09-24T15:56:11;7.60;;;3.87;;
5904;SDS011;2978;42.012;24.880;2022-09-24T15:58:37;9.60;;;4.03;;
5904;SDS011;2978;42.012;24.880;2022-09-24T16:01:03;8.93;;;3.90;;
5904;SDS011;2978;42.012;24.880;2022-09-24T16:03:29;6.63;;;4.07;;
5904;SDS011;2978;42.012;24.880;2022-09-24T16:05:56;9.60;;;3.37;;
5904;SDS011;2978;42.012;24.880;2022-09-24T16:08:23;5.10;;;3.40;;
5904;SDS011;2978;42.012;24.880;2022-09-24T16:10:49;5.53;;;3.50;;
5904;SDS011;2978;42.012;24.880;2022-09-24T16:13:15;8.13;;;3.37;;
5904;SDS011;2978;42.012;24.880;2022-09-24T16:15:41;7.70;;;4.20;;
5904;SDS011;2978;42.012;24.880;2022-09-24T16:18:11;6.77;;;3.57;;
5904;SDS011;2978;42.012;24.880;2022-09-24T16:20:39;6.37;;;3.30;;
5904;SDS011;2978;42.012;24.880;2022-09-24T16:23:05;5.50;;;2.57;;
5904;SDS011;2978;42.012;24.880;2022-09-24T16:25:38;10.87;;;3.50;;
5904;SDS011;2978;42.012;24.880;2022-09-24T16:28:03;5.00;;;3.03;;
5904;SDS011;2978;42.012;24.880;2022-09-24T16:30:29;6.50;;;3.07;;
5904;SDS011;2978;42.012;24.880;2022-09-24T16:32:54;5.70;;;3.17;;
5904;SDS011;2978;42.012;24.880;2022-09-24T16:35:19;4.60;;;3.10;;
5904;SDS011;2978;42.012;24.880;2022-09-24T16:37:45;13.33;;;3.77;;
5904;SDS011;2978;42.012;24.880;2022-09-24T16:40:10;5.27;;;3.83;;
5904;SDS011;2978;42.012;24.880;2022-09-24T16:42:36;5.83;;;2.93;;
5904;SDS011;2978;42.012;24.880;2022-09-24T16:45:01;9.27;;;3.57;;
5904;SDS011;2978;42.012;24.880;2022-09-24T16:47:27;6.77;;;3.30;;
5904;SDS011;2978;42.012;24.880;2022-09-24T16:49:53;3.93;;;2.90;;
5904;SDS011;2978;42.012;24.880;2022-09-24T16:52:18;4.17;;;2.60;;
5904;SDS011;2978;42.012;24.880;2022-09-24T16:54:44;4.57;;;2.73;;
5904;SDS011;2978;42.012;24.880;2022-09-24T16:57:09;3.70;;;2.60;;
5904;SDS011;2978;42.012;24.880;2022-09-24T16:59:34;6.67;;;3.07;;
5904;SDS011;2978;42.012;24.880;2022-09-24T17:02:00;4.10;;;2.67;;
5904;SDS011;2978;42.012;24.880;2022-09-24T17:04:26;10.93;;;2.97;;
5904;SDS011;2978;42.012;24.880;2022-09-24T17:06:52;5.90;;;2.93;;
5904;SDS011;2978;42.012;24.880;2022-09-24T17:09:18;2.97;;;2.20;;
5904;SDS011;2978;42.012;24.880;2022-09-24T17:12:03;8.40;;;3.10;;
5904;SDS011;2978;42.012;24.880;2022-09-24T17:14:28;4.60;;;3.10;;
5904;SDS011;2978;42.012;24.880;2022-09-24T17:16:54;4.10;;;3.10;;
5904;SDS011;2978;42.012;24.880;2022-09-24T17:19:19;7.17;;;2.77;;
5904;SDS011;2978;42.012;24.880;2022-09-24T17:21:45;4.13;;;2.93;;
5904;SDS011;2978;42.012;24.880;2022-09-24T17:24:11;9.60;;;3.47;;
5904;SDS011;2978;42.012;24.880;2022-09-24T17:26:37;3.57;;;2.80;;
5904;SDS011;2978;42.012;24.880;2022-09-24T17:29:03;3.23;;;2.50;;
5904;SDS011;2978;42.012;24.880;2022-09-24T17:31:29;4.40;;;2.70;;
5904;SDS011;2978;42.012;24.880;2022-09-24T17:33:56;3.20;;;2.43;;
5904;SDS011;2978;42.012;24.880;2022-09-24T17:36:26;3.70;;;2.63;;
5904;SDS011;2978;42.012;24.880;2022-09-24T17:38:53;3.80;;;2.67;;
5904;SDS011;2978;42.012;24.880;2022-09-24T17:41:20;4.50;;;2.77;;
5904;SDS011;2978;42.012;24.880;2022-09-24T17:43:46;4.60;;;2.70;;